Time;durP1;ratioP1;P1;durP2;ratioP2;P2;SDS_P1;SDS_P2;PMS_P1;PMS_P2;Temp;Humidity;BMP_temperature;BMP_pressure;BME280_temperature;BME280_humidity;BME280_pressure;Samples;Min_cycle;Max_cycle;Signal;HPM_P1;HPM_P2
2021/08/01 00:01:54;;;;;;;;;;;;;;;21.20;65.50;99363.13;4975249;28;843;-59
2021/08/01 00:04:22;;;;;;;;;;;;;;;20.95;66.27;99360.94;4992600;28;847;-59
2021/08/01 00:06:48;;;;;;;;;;;;;;;20.68;67.53;99359.97;4992519;28;826;-59
2021/08/01 00:09:16;;;;;;;;;;;;;;;20.46;68.36;99365.13;4992540;28;885;-59
2021/08/01 00:11:42;;;;;;;;;;;;;;;20.33;68.70;99356.97;4992635;28;1991;-59
2021/08/01 00:14:09;;;;;;;;;;;;;;;20.22;69.07;99351.16;4992038;28;911;-59
2021/08/01 00:16:37;;;;;;;;;;;;;;;20.14;69.54;99333.91;4992297;28;1323;-59
2021/08/01 00:19:03;;;;;;;;;;;;;;;20.06;69.68;99336.31;4992409;28;898;-59
2021/08/01 00:21:31;;;;;;;;;;;;;;;19.95;69.57;99324.84;4992302;28;819;-59
2021/08/01 00:23:58;;;;;;;;;;;;;;;19.88;69.40;99314.75;4992234;28;859;-59
2021/08/01 00:26:24;;;;;;;;;;;;;;;19.86;69.11;99308.09;4992248;28;878;-59
2021/08/01 00:28:51;;;;;;;;;;;;;;;19.89;68.85;99307.16;4992260;28;1035;-59
2021/08/01 00:31:18;;;;;;;;;;;;;;;19.95;68.48;99294.00;4992275;28;843;-59
2021/08/01 00:33:45;;;;;;;;;;;;;;;20.04;68.02;99295.97;4992173;28;1044;-59
2021/08/01 00:36:10;;;;;;;;;;;;;;;20.11;67.59;99285.13;4992116;28;930;-59
2021/08/01 00:38:37;;;;;;;;;;;;;;;20.16;67.18;99290.09;4992180;28;815;-59
2021/08/01 00:41:04;;;;;;;;;;;;;;;20.19;66.89;99293.97;4992248;28;847;-59
2021/08/01 00:43:31;;;;;;;;;;;;;;;20.16;66.59;99278.88;4992152;28;885;-59
2021/08/01 00:45:58;;;;;;;;;;;;;;;20.20;66.37;99284.28;4992122;28;870;-59
2021/08/01 00:48:26;;;;;;;;;;;;;;;20.07;66.64;99281.75;4992154;28;838;-59
2021/08/01 00:50:55;;;;;;;;;;;;;;;19.87;67.34;99285.19;4991985;28;851;-59
2021/08/01 00:53:22;;;;;;;;;;;;;;;19.66;68.15;99286.25;4992053;28;1984;-59
2021/08/01 00:55:49;;;;;;;;;;;;;;;19.51;69.11;99289.75;4992234;28;851;-59
2021/08/01 00:58:16;;;;;;;;;;;;;;;19.48;69.77;99292.72;4992041;28;847;-59
2021/08/01 01:03:40;;;;;;;;;;;;;;;19.52;70.36;99290.53;4991952;28;783;-59
2021/08/01 01:06:24;;;;;;;;;;;;;;;19.67;70.05;99291.38;4979285;28;1657;-59
2021/08/01 01:09:05;;;;;;;;;;;;;;;19.79;69.56;99279.16;4992051;28;812;-59
2021/08/01 01:11:35;;;;;;;;;;;;;;;19.88;68.63;99271.94;4991810;28;1922;-59
2021/08/01 01:14:02;;;;;;;;;;;;;;;19.94;67.98;99270.78;4992019;28;936;-59
2021/08/01 01:16:30;;;;;;;;;;;;;;;19.95;67.67;99268.75;4991569;28;1215;-59
2021/08/01 01:19:00;;;;;;;;;;;;;;;20.02;67.03;99262.03;4991758;28;879;-59
2021/08/01 01:21:44;;;;;;;;;;;;;;;20.05;66.57;99267.44;4991814;28;847;-59
2021/08/01 01:24:14;;;;;;;;;;;;;;;20.09;66.10;99265.22;4992610;28;851;-59
2021/08/01 01:27:01;;;;;;;;;;;;;;;20.06;66.08;99273.84;4995487;28;807;-59
2021/08/01 01:29:38;;;;;;;;;;;;;;;19.96;66.37;99270.31;4985331;28;1557;-59
2021/08/01 01:32:14;;;;;;;;;;;;;;;19.90;66.39;99261.78;4995290;28;1973;-59
2021/08/01 01:34:52;;;;;;;;;;;;;;;19.88;66.55;99263.53;4995385;28;811;-59
2021/08/01 01:37:20;;;;;;;;;;;;;;;19.81;66.61;99266.72;4977908;28;1510;-59
2021/08/01 01:39:48;;;;;;;;;;;;;;;19.63;67.26;99261.97;4995283;28;815;-59
2021/08/01 01:42:16;;;;;;;;;;;;;;;19.47;67.79;99265.97;4995207;28;812;-59
2021/08/01 01:44:46;;;;;;;;;;;;;;;19.55;67.66;99267.16;4995175;28;847;-59
2021/08/01 01:47:14;;;;;;;;;;;;;;;19.62;67.42;99269.59;4995207;28;901;-59
2021/08/01 01:49:41;;;;;;;;;;;;;;;19.62;67.42;99266.81;4977666;28;808;-59
2021/08/01 01:52:10;;;;;;;;;;;;;;;19.61;67.48;99267.28;4995013;28;1949;-59
2021/08/01 01:54:37;;;;;;;;;;;;;;;19.59;67.54;99254.53;4994804;28;880;-59
2021/08/01 01:57:06;;;;;;;;;;;;;;;19.61;67.47;99256.84;4994999;28;828;-59
2021/08/01 01:59:33;;;;;;;;;;;;;;;19.58;67.45;99252.19;4994900;28;871;-59
2021/08/01 02:02:00;;;;;;;;;;;;;;;19.54;67.64;99243.19;4994849;28;855;-59
2021/08/01 02:04:27;;;;;;;;;;;;;;;19.41;67.97;99253.88;4994865;28;846;-59
2021/08/01 02:06:53;;;;;;;;;;;;;;;19.37;68.19;99256.84;4994698;28;866;-59
2021/08/01 02:09:22;;;;;;;;;;;;;;;19.36;68.15;99253.25;4994737;28;843;-59
2021/08/01 02:12:02;;;;;;;;;;;;;;;19.38;68.11;99258.41;4994541;28;1954;-59
2021/08/01 02:14:33;;;;;;;;;;;;;;;19.36;68.06;99255.28;4995015;28;1144;-59
2021/08/01 02:17:04;;;;;;;;;;;;;;;19.33;68.12;99248.63;4994525;28;863;-59
2021/08/01 02:19:34;;;;;;;;;;;;;;;19.36;68.17;99252.50;4994581;28;886;-59
2021/08/01 02:22:02;;;;;;;;;;;;;;;19.40;68.12;99249.53;4977157;28;898;-59
2021/08/01 02:24:30;;;;;;;;;;;;;;;19.40;68.08;99247.50;4994366;28;855;-59
2021/08/01 02:26:57;;;;;;;;;;;;;;;19.34;68.06;99255.75;4994418;28;875;-59
2021/08/01 02:29:25;;;;;;;;;;;;;;;19.27;68.24;99266.56;4994349;28;827;-59
2021/08/01 02:31:53;;;;;;;;;;;;;;;19.13;68.55;99265.22;4994198;28;1973;-59
2021/08/01 02:34:21;;;;;;;;;;;;;;;19.04;68.94;99266.03;4994225;28;1014;-59
2021/08/01 02:36:50;;;;;;;;;;;;;;;19.03;68.97;99266.50;4993513;28;894;-59
2021/08/01 02:39:17;;;;;;;;;;;;;;;19.07;68.99;99267.88;4994084;28;894;-59
2021/08/01 02:41:45;;;;;;;;;;;;;;;19.13;69.03;99268.78;4994130;28;815;-59
2021/08/01 02:44:14;;;;;;;;;;;;;;;19.33;68.54;99268.25;4994218;28;862;-58
2021/08/01 02:46:41;;;;;;;;;;;;;;;19.59;67.97;99254.53;4994752;28;803;-59
2021/08/01 02:49:11;;;;;;;;;;;;;;;19.77;67.09;99262.03;4994305;28;934;-59
2021/08/01 02:51:38;;;;;;;;;;;;;;;19.78;66.75;99268.44;4993819;28;1953;-59
2021/08/01 02:54:05;;;;;;;;;;;;;;;19.63;67.26;99276.78;4993759;28;815;-59
2021/08/01 02:56:33;;;;;;;;;;;;;;;19.54;67.50;99276.81;4994112;28;796;-59
2021/08/01 02:59:02;;;;;;;;;;;;;;;19.57;67.50;99278.69;4993850;28;824;-59
2021/08/01 03:01:28;;;;;;;;;;;;;;;19.62;67.61;99289.22;4993809;28;808;-59
2021/08/01 03:03:55;;;;;;;;;;;;;;;19.67;67.63;99287.78;4993734;28;862;-59
2021/08/01 03:06:22;;;;;;;;;;;;;;;19.78;67.72;99293.69;4993607;28;844;-59
2021/08/01 03:08:49;;;;;;;;;;;;;;;19.90;67.53;99300.28;4993565;28;791;-59
2021/08/01 03:11:22;;;;;;;;;;;;;;;20.03;67.29;99300.03;4993841;28;898;-59
2021/08/01 03:13:49;;;;;;;;;;;;;;;20.22;67.35;99298.59;4976097;28;1879;-58
2021/08/01 03:16:15;;;;;;;;;;;;;;;20.34;66.60;99285.56;4993211;28;1266;-59
2021/08/01 03:18:43;;;;;;;;;;;;;;;20.47;66.37;99300.09;4993423;28;835;-59
2021/08/01 03:21:09;;;;;;;;;;;;;;;20.60;65.72;99297.03;4993490;28;855;-59
2021/08/01 03:23:36;;;;;;;;;;;;;;;20.69;65.31;99299.72;4993232;28;823;-59
2021/08/01 03:26:03;;;;;;;;;;;;;;;20.69;65.43;99294.13;4993369;28;815;-59
2021/08/01 03:28:30;;;;;;;;;;;;;;;20.62;65.49;99293.75;4993084;28;807;-59
2021/08/01 03:30:57;;;;;;;;;;;;;;;20.59;65.63;99298.31;4993345;28;808;-59
2021/08/01 03:33:24;;;;;;;;;;;;;;;20.52;66.04;99295.84;4992998;28;1906;-59
2021/08/01 03:35:51;;;;;;;;;;;;;;;20.35;66.51;99301.91;4993092;28;863;-59
2021/08/01 03:38:18;;;;;;;;;;;;;;;20.22;67.42;99303.44;4993077;28;874;-59
2021/08/01 03:40:44;;;;;;;;;;;;;;;20.07;68.17;99307.00;4993027;28;838;-59
2021/08/01 03:43:10;;;;;;;;;;;;;;;19.95;68.73;99313.63;4993058;28;866;-59
2021/08/01 03:45:37;;;;;;;;;;;;;;;19.89;68.80;99312.75;4992919;28;847;-59
2021/08/01 03:48:04;;;;;;;;;;;;;;;19.90;68.70;99312.25;4992004;28;827;-59
2021/08/01 03:50:30;;;;;;;;;;;;;;;19.98;68.58;99312.69;4993112;28;796;-59
2021/08/01 03:52:57;;;;;;;;;;;;;;;20.09;68.36;99312.91;4992692;28;1906;-59
2021/08/01 03:55:24;;;;;;;;;;;;;;;20.24;68.09;99309.34;4992797;28;889;-59
2021/08/01 03:57:51;;;;;;;;;;;;;;;20.45;67.55;99313.06;4992693;28;847;-59
2021/08/01 04:00:18;;;;;;;;;;;;;;;20.65;67.09;99309.59;4992590;28;898;-59
2021/08/01 04:02:45;;;;;;;;;;;;;;;20.80;66.74;99307.56;4992696;28;830;-59
2021/08/01 04:05:12;;;;;;;;;;;;;;;20.93;66.44;99315.69;4992580;28;871;-59
2021/08/01 04:07:39;;;;;;;;;;;;;;;21.09;65.67;99314.44;4992536;28;847;-59
2021/08/01 04:10:06;;;;;;;;;;;;;;;21.24;65.54;99323.59;4992655;28;855;-59
2021/08/01 04:12:33;;;;;;;;;;;;;;;21.36;65.07;99324.56;4992458;28;1890;-59
2021/08/01 04:14:59;;;;;;;;;;;;;;;21.43;65.20;99317.78;4992302;28;1527;-59
2021/08/01 04:17:29;;;;;;;;;;;;;;;21.50;65.20;99323.75;4991206;28;1629;-59
2021/08/01 04:19:55;;;;;;;;;;;;;;;21.59;64.93;99325.66;4992387;28;827;-59
2021/08/01 04:22:22;;;;;;;;;;;;;;;21.68;64.67;99327.56;4992258;28;898;-59
2021/08/01 04:24:49;;;;;;;;;;;;;;;21.79;64.30;99316.47;4992297;28;863;-59
2021/08/01 04:27:16;;;;;;;;;;;;;;;21.91;64.20;99320.97;4992377;28;886;-59
2021/08/01 04:29:43;;;;;;;;;;;;;;;22.03;64.15;99324.69;4992273;28;859;-59
2021/08/01 04:32:09;;;;;;;;;;;;;;;22.17;63.88;99326.66;4992142;28;2254;-59
2021/08/01 04:34:36;;;;;;;;;;;;;;;22.37;63.33;99320.25;4992097;28;932;-59
2021/08/01 04:37:03;;;;;;;;;;;;;;;22.59;62.81;99311.22;4992193;28;850;-59
2021/08/01 04:39:30;;;;;;;;;;;;;;;22.74;62.96;99327.25;4992164;28;824;-59
2021/08/01 04:41:56;;;;;;;;;;;;;;;22.77;62.85;99323.44;4992179;28;905;-59
2021/08/01 04:44:23;;;;;;;;;;;;;;;22.80;62.58;99325.25;4992111;28;847;-59
2021/08/01 04:46:49;;;;;;;;;;;;;;;22.86;62.63;99320.44;4992169;28;819;-59
2021/08/01 04:49:16;;;;;;;;;;;;;;;22.96;62.38;99324.63;4990772;28;2670;-59
2021/08/01 04:51:42;;;;;;;;;;;;;;;23.07;62.12;99326.03;4991910;28;1886;-59
2021/08/01 04:54:09;;;;;;;;;;;;;;;23.19;61.86;99327.66;4992304;28;804;-59
2021/08/01 04:56:36;;;;;;;;;;;;;;;23.36;61.95;99320.06;4992075;28;835;-59
2021/08/01 04:59:02;;;;;;;;;;;;;;;23.60;61.60;99322.53;4992867;28;850;-59
2021/08/01 05:01:29;;;;;;;;;;;;;;;23.80;60.79;99318.81;4995895;28;878;-59
2021/08/01 05:03:56;;;;;;;;;;;;;;;23.96;60.61;99319.38;4996166;28;879;-59
2021/08/01 05:06:23;;;;;;;;;;;;;;;24.10;59.86;99314.84;4995884;28;823;-59
2021/08/01 05:14:23;;;;;;;;;;;;;;;24.43;59.36;99331.88;5943140;22;1793;-60
2021/08/01 05:16:50;;;;;;;;;;;;;;;24.44;59.00;99339.06;5015373;28;858;-59
2021/08/01 05:19:16;;;;;;;;;;;;;;;24.68;58.68;99345.53;5015349;28;814;-59
2021/08/01 05:21:42;;;;;;;;;;;;;;;25.06;57.70;99350.44;5015269;28;818;-59
2021/08/01 05:24:09;;;;;;;;;;;;;;;25.58;56.69;99348.38;5015251;28;963;-59
2021/08/01 05:26:36;;;;;;;;;;;;;;;26.07;55.70;99354.41;5013886;28;1352;-59
2021/08/01 05:29:02;;;;;;;;;;;;;;;26.62;54.71;99363.94;5015027;28;878;-59
2021/08/01 05:31:29;;;;;;;;;;;;;;;27.06;53.45;99352.81;5015173;28;862;-59
2021/08/01 05:33:56;;;;;;;;;;;;;;;27.44;52.36;99356.63;5015060;28;826;-59
2021/08/01 05:36:23;;;;;;;;;;;;;;;27.99;51.18;99347.28;5013657;28;1380;-59
2021/08/01 05:38:49;;;;;;;;;;;;;;;28.77;49.47;99339.00;5014952;28;827;-59
2021/08/01 05:41:16;;;;;;;;;;;;;;;29.77;46.34;99349.22;5014916;28;815;-59
2021/08/01 05:43:43;;;;;;;;;;;;;;;30.86;43.24;99350.75;5014599;28;911;-59
2021/08/01 05:46:12;;;;;;;;;;;;;;;31.86;40.79;99348.69;5014898;28;865;-60
2021/08/01 05:48:38;;;;;;;;;;;;;;;32.65;39.31;99352.13;5014771;28;841;-59
2021/08/01 05:51:08;;;;;;;;;;;;;;;33.40;37.24;99342.66;5014665;28;870;-60
2021/08/01 05:53:35;;;;;;;;;;;;;;;33.80;36.25;99347.75;5014593;28;1952;-60
2021/08/01 05:56:12;;;;;;;;;;;;;;;34.17;35.38;99354.75;5014642;28;799;-60
2021/08/01 05:58:39;;;;;;;;;;;;;;;34.38;35.25;99359.47;5014757;28;904;-60
2021/08/01 06:01:09;;;;;;;;;;;;;;;34.68;34.71;99364.28;5014570;28;963;-60
2021/08/01 06:03:36;;;;;;;;;;;;;;;35.06;34.02;99366.91;5014615;28;827;-59
2021/08/01 06:06:10;;;;;;;;;;;;;;;35.48;33.16;99363.31;5014376;28;862;-60
2021/08/01 06:08:36;;;;;;;;;;;;;;;36.07;32.40;99367.53;5014383;28;819;-59
2021/08/01 06:11:04;;;;;;;;;;;;;;;36.45;31.26;99368.44;5013242;28;854;-60
2021/08/01 06:13:31;;;;;;;;;;;;;;;36.52;30.48;99370.44;5014255;28;1889;-60
2021/08/01 06:15:58;;;;;;;;;;;;;;;36.49;29.58;99366.66;5043110;28;1242;-60
2021/08/01 06:18:25;;;;;;;;;;;;;;;36.70;29.53;99365.41;5053882;28;893;-61
2021/08/01 06:21:01;;;;;;;;;;;;;;;36.87;28.87;99367.47;5053978;28;838;-61
2021/08/01 06:23:28;;;;;;;;;;;;;;;37.09;28.56;99362.72;5054044;28;845;-60
2021/08/01 06:25:54;;;;;;;;;;;;;;;37.45;27.81;99369.81;5053686;28;818;-61
2021/08/01 06:28:21;;;;;;;;;;;;;;;37.43;27.36;99370.44;5053654;28;814;-61
2021/08/01 06:30:47;;;;;;;;;;;;;;;37.29;27.01;99375.09;5053588;28;854;-61
2021/08/01 06:33:13;;;;;;;;;;;;;;;37.51;26.54;99376.06;5035609;28;1933;-61
2021/08/01 06:35:39;;;;;;;;;;;;;;;37.77;26.60;99371.59;5053475;28;814;-61
2021/08/01 06:38:06;;;;;;;;;;;;;;;38.10;26.41;99368.28;5053481;28;905;-60
2021/08/01 06:40:33;;;;;;;;;;;;;;;38.47;26.31;99371.72;5053377;28;843;-61
2021/08/01 06:43:00;;;;;;;;;;;;;;;38.75;26.14;99370.19;5053306;28;846;-61
2021/08/01 06:45:26;;;;;;;;;;;;;;;38.95;25.77;99373.03;5053335;28;913;-61
2021/08/01 06:47:53;;;;;;;;;;;;;;;38.70;26.09;99370.50;5053475;28;835;-61
2021/08/01 06:50:21;;;;;;;;;;;;;;;38.69;26.61;99369.00;5053282;28;987;-61
2021/08/01 06:52:47;;;;;;;;;;;;;;;39.09;26.42;99374.03;5053040;28;1898;-61
2021/08/01 06:55:14;;;;;;;;;;;;;;;39.43;25.81;99372.03;5053174;28;920;-61
2021/08/01 06:57:41;;;;;;;;;;;;;;;39.61;25.39;99370.41;5053038;28;811;-61
2021/08/01 07:00:08;;;;;;;;;;;;;;;39.42;25.66;99372.69;5053289;28;827;-61
2021/08/01 07:02:35;;;;;;;;;;;;;;;39.43;25.65;99374.19;5052984;28;858;-61
2021/08/01 07:05:00;;;;;;;;;;;;;;;39.19;25.56;99377.63;5052976;28;799;-61
2021/08/01 07:07:27;;;;;;;;;;;;;;;38.90;25.73;99380.63;5053015;28;906;-61
2021/08/01 07:09:53;;;;;;;;;;;;;;;38.83;25.36;99369.22;5052910;28;937;-61
2021/08/01 07:12:20;;;;;;;;;;;;;;;39.13;25.32;99371.41;5052659;28;1970;-61
2021/08/01 07:14:47;;;;;;;;;;;;;;;39.07;25.40;99370.22;5052821;28;1186;-61
2021/08/01 07:17:14;;;;;;;;;;;;;;;39.52;25.12;99368.34;5052654;28;945;-61
2021/08/01 07:19:40;;;;;;;;;;;;;;;39.87;25.27;99373.59;5052746;28;846;-61
2021/08/01 07:22:07;;;;;;;;;;;;;;;39.56;24.88;99368.63;5052356;28;946;-61
2021/08/01 07:24:33;;;;;;;;;;;;;;;39.56;24.70;99382.31;5052522;28;858;-61
2021/08/01 07:27:00;;;;;;;;;;;;;;;39.74;24.77;99374.88;5052587;28;830;-61
2021/08/01 07:29:27;;;;;;;;;;;;;;;39.81;25.08;99376.06;5052471;28;869;-61
2021/08/01 07:31:57;;;;;;;;;;;;;;;39.74;24.39;99374.13;5052418;28;1942;-61
2021/08/01 07:34:24;;;;;;;;;;;;;;;39.59;24.36;99373.16;5052477;28;826;-61
2021/08/01 07:36:50;;;;;;;;;;;;;;;39.71;24.48;99376.13;5052366;28;898;-61
2021/08/01 07:39:17;;;;;;;;;;;;;;;39.70;23.84;99376.75;5052270;28;912;-61
2021/08/01 07:41:43;;;;;;;;;;;;;;;39.86;24.28;99383.66;5052147;28;951;-61
2021/08/01 07:44:09;;;;;;;;;;;;;;;40.35;23.82;99386.16;5052136;28;914;-61
2021/08/01 07:46:36;;;;;;;;;;;;;;;40.40;23.93;99380.00;5052143;28;853;-61
2021/08/01 07:49:03;;;;;;;;;;;;;;;40.67;23.53;99380.94;5052143;28;791;-61
2021/08/01 07:51:30;;;;;;;;;;;;;;;40.29;23.75;99377.84;5052100;28;843;-61
2021/08/01 07:53:56;;;;;;;;;;;;;;;40.11;24.00;99377.34;5052038;28;1941;-61
2021/08/01 07:56:23;;;;;;;;;;;;;;;40.42;23.78;99380.16;5051915;28;857;-61
2021/08/01 07:58:50;;;;;;;;;;;;;;;40.42;24.05;99376.50;5052064;28;822;-61
2021/08/01 08:01:16;;;;;;;;;;;;;;;40.44;24.26;99375.84;5051932;28;799;-61
2021/08/01 08:03:42;;;;;;;;;;;;;;;40.66;23.66;99373.66;5051976;28;878;-61
2021/08/01 08:06:09;;;;;;;;;;;;;;;40.40;23.97;99374.22;5052067;28;909;-61
2021/08/01 08:08:36;;;;;;;;;;;;;;;40.45;23.87;99375.22;5052024;28;822;-61
2021/08/01 08:11:03;;;;;;;;;;;;;;;40.28;23.40;99367.63;5051739;28;878;-61
2021/08/01 08:13:29;;;;;;;;;;;;;;;40.38;23.59;99368.28;5051797;28;1874;-60
2021/08/01 08:15:57;;;;;;;;;;;;;;;40.29;23.62;99371.31;5051408;28;1288;-60
2021/08/01 08:18:23;;;;;;;;;;;;;;;40.24;24.14;99366.59;5051730;28;795;-61
2021/08/01 08:20:49;;;;;;;;;;;;;;;40.29;23.40;99372.06;5051672;28;819;-61
2021/08/01 08:23:16;;;;;;;;;;;;;;;40.40;23.78;99368.44;5051615;28;862;-61
2021/08/01 08:25:43;;;;;;;;;;;;;;;40.45;24.20;99369.44;5051941;28;913;-61
2021/08/01 08:28:10;;;;;;;;;;;;;;;40.50;24.36;99364.66;5051532;28;818;-61
2021/08/01 08:30:37;;;;;;;;;;;;;;;40.89;24.06;99367.91;5051424;28;973;-61
2021/08/01 08:33:04;;;;;;;;;;;;;;;41.39;23.82;99365.91;5051267;28;1902;-61
2021/08/01 08:35:31;;;;;;;;;;;;;;;41.55;23.72;99369.81;5051130;28;835;-61
2021/08/01 08:37:58;;;;;;;;;;;;;;;41.35;23.11;99363.50;5051738;28;890;-61
2021/08/01 08:40:25;;;;;;;;;;;;;;;41.16;23.27;99350.06;5051297;28;826;-60
2021/08/01 08:42:52;;;;;;;;;;;;;;;40.85;23.53;99358.22;5051249;28;941;-61
2021/08/01 08:45:19;;;;;;;;;;;;;;;40.72;24.10;99345.88;5051391;28;866;-61
2021/08/01 08:47:47;;;;;;;;;;;;;;;40.92;24.25;99336.94;5051269;28;827;-61
2021/08/01 08:50:16;;;;;;;;;;;;;;;40.84;23.42;99336.41;5051402;28;814;-61
2021/08/01 08:52:44;;;;;;;;;;;;;;;40.62;24.63;99336.50;5051301;28;1882;-61
2021/08/01 08:55:14;;;;;;;;;;;;;;;40.55;24.57;99337.50;5051258;28;876;-61
2021/08/01 08:57:49;;;;;;;;;;;;;;;40.74;24.24;99336.56;5051338;28;806;-60
2021/08/01 09:00:15;;;;;;;;;;;;;;;40.61;23.90;99341.53;5051540;28;869;-61
2021/08/01 09:02:42;;;;;;;;;;;;;;;40.76;24.40;99346.13;5051108;28;860;-61
2021/08/01 09:05:09;;;;;;;;;;;;;;;40.57;24.94;99344.19;5051483;28;814;-61
2021/08/01 09:07:38;;;;;;;;;;;;;;;40.45;25.18;99340.50;5051098;28;913;-61
2021/08/01 09:10:06;;;;;;;;;;;;;;;40.44;25.01;99336.09;5051112;28;859;-60
2021/08/01 09:12:43;;;;;;;;;;;;;;;39.99;25.55;99331.03;5051072;28;1945;-60
2021/08/01 09:15:11;;;;;;;;;;;;;;;39.67;25.42;99334.59;5050888;28;1273;-61
2021/08/01 09:17:38;;;;;;;;;;;;;;;39.79;26.14;99347.00;5050982;28;794;-61
2021/08/01 09:20:35;;;;;;;;;;;;;;;40.12;25.25;99340.50;5051124;28;881;-61
2021/08/01 09:23:01;;;;;;;;;;;;;;;40.14;25.80;99343.53;5034177;28;1284;-61
2021/08/01 09:25:28;;;;;;;;;;;;;;;39.79;25.78;99341.22;5051419;28;814;-60
2021/08/01 09:28:10;;;;;;;;;;;;;;;39.62;26.08;99330.69;5033177;28;1477;-61
2021/08/01 09:30:43;;;;;;;;;;;;;;;39.75;26.25;99329.38;5050774;28;922;-61
2021/08/01 09:33:09;;;;;;;;;;;;;;;39.72;26.56;99331.38;5051508;28;1906;-61
2021/08/01 09:35:36;;;;;;;;;;;;;;;39.66;26.52;99333.84;5050846;28;807;-61
2021/08/01 09:38:02;;;;;;;;;;;;;;;39.67;26.48;99332.47;5050946;28;862;-61
2021/08/01 09:40:30;;;;;;;;;;;;;;;39.38;26.09;99332.66;5050726;28;868;-61
2021/08/01 09:43:05;;;;;;;;;;;;;;;39.41;26.59;99331.44;5050871;28;803;-61
2021/08/01 09:45:32;;;;;;;;;;;;;;;39.09;26.82;99330.69;5052257;28;818;-62
2021/08/01 09:48:13;;;;;;;;;;;;;;;38.69;27.31;99326.44;5054456;28;913;-60
2021/08/01 09:50:57;;;;;;;;;;;;;;;38.26;28.40;99326.22;5055078;28;767;-61
2021/08/01 09:53:24;;;;;;;;;;;;;;;37.94;28.63;99336.06;5054295;28;1945;-61
2021/08/01 09:56:08;;;;;;;;;;;;;;;37.85;28.56;99320.28;5054349;28;806;-61
2021/08/01 09:58:38;;;;;;;;;;;;;;;37.79;29.62;99322.75;5054224;28;857;-61
2021/08/01 10:01:05;;;;;;;;;;;;;;;37.95;29.30;99317.41;5054225;28;905;-61
2021/08/01 10:03:38;;;;;;;;;;;;;;;37.93;29.27;99315.13;5054128;28;802;-61
2021/08/01 10:06:08;;;;;;;;;;;;;;;37.83;29.65;99311.47;5054649;28;834;-60
2021/08/01 10:08:39;;;;;;;;;;;;;;;37.76;28.67;99312.41;5054073;28;855;-61
2021/08/01 10:11:13;;;;;;;;;;;;;;;37.53;29.10;99310.69;5054082;28;859;-60
2021/08/01 10:13:41;;;;;;;;;;;;;;;37.32;30.27;99308.41;5036036;28;1917;-61
2021/08/01 10:16:09;;;;;;;;;;;;;;;37.57;28.93;99305.25;5053737;28;1267;-61
2021/08/01 10:18:36;;;;;;;;;;;;;;;37.34;30.09;99302.78;5054011;28;802;-60
2021/08/01 10:21:03;;;;;;;;;;;;;;;37.28;29.59;99313.84;5053884;28;905;-60
2021/08/01 10:23:39;;;;;;;;;;;;;;;37.40;30.18;99306.09;5054024;28;862;-60
2021/08/01 10:26:07;;;;;;;;;;;;;;;37.53;30.31;99304.16;5053935;28;842;-60
2021/08/01 10:28:35;;;;;;;;;;;;;;;37.57;29.18;99301.63;5053714;28;909;-61
2021/08/01 10:31:07;;;;;;;;;;;;;;;37.61;28.48;99296.16;5053621;28;869;-60
2021/08/01 10:33:37;;;;;;;;;;;;;;;37.61;29.16;99292.53;5053448;28;1972;-61
2021/08/01 10:36:05;;;;;;;;;;;;;;;37.59;29.42;99287.34;5053849;28;810;-61
2021/08/01 10:38:35;;;;;;;;;;;;;;;37.71;29.73;99284.66;5053376;28;864;-61
2021/08/01 10:41:01;;;;;;;;;;;;;;;37.76;29.32;99286.44;5035574;28;1327;-61
2021/08/01 10:43:30;;;;;;;;;;;;;;;37.86;29.00;99284.31;5053416;28;819;-61
2021/08/01 10:45:56;;;;;;;;;;;;;;;38.08;28.57;99276.56;5053341;28;874;-61
2021/08/01 10:48:24;;;;;;;;;;;;;;;37.91;28.48;99280.38;5053544;28;828;-61
2021/08/01 10:50:54;;;;;;;;;;;;;;;37.99;28.60;99280.22;5053250;28;925;-61
2021/08/01 10:53:25;;;;;;;;;;;;;;;37.98;28.12;99272.91;5053445;28;1890;-61
2021/08/01 10:56:06;;;;;;;;;;;;;;;37.62;27.94;99285.38;5053172;28;857;-60
2021/08/01 10:58:37;;;;;;;;;;;;;;;37.51;28.68;99287.50;5052624;28;837;-61
2021/08/01 11:01:08;;;;;;;;;;;;;;;37.66;27.87;99279.91;5053013;28;1119;-61
2021/08/01 11:03:36;;;;;;;;;;;;;;;37.61;28.43;99278.13;5035066;28;1292;-61
2021/08/01 11:06:02;;;;;;;;;;;;;;;37.84;28.41;99278.41;5053038;28;786;-61
2021/08/01 11:08:29;;;;;;;;;;;;;;;37.88;27.91;99275.06;5052845;28;822;-61
2021/08/01 11:11:28;;;;;;;;;;;;;;;37.77;28.08;99282.22;5052937;28;827;-61
2021/08/01 11:13:54;;;;;;;;;;;;;;;37.91;28.38;99265.94;5008733;28;1886;-60
2021/08/01 11:16:47;;;;;;;;;;;;;;;38.17;28.19;99263.50;5052612;28;1259;-60
2021/08/01 11:19:33;;;;;;;;;;;;;;;38.32;28.07;99268.16;5049696;28;1173;-61
2021/08/01 11:22:00;;;;;;;;;;;;;;;38.45;27.42;99266.91;5052700;28;838;-61
2021/08/01 11:24:27;;;;;;;;;;;;;;;38.43;27.61;99269.66;5052604;28;889;-61
2021/08/01 11:27:07;;;;;;;;;;;;;;;38.50;26.93;99263.75;5052503;28;834;-60
2021/08/01 11:29:54;;;;;;;;;;;;;;;38.30;27.00;99268.81;5034638;28;886;-61
2021/08/01 11:32:20;;;;;;;;;;;;;;;38.13;27.92;99266.09;5052248;28;2174;-61
2021/08/01 11:34:48;;;;;;;;;;;;;;;38.24;27.75;99261.81;5052431;28;907;-61
2021/08/01 11:37:21;;;;;;;;;;;;;;;38.29;27.22;99260.75;5052400;28;873;-61
2021/08/01 11:39:55;;;;;;;;;;;;;;;38.18;27.89;99260.00;5052215;28;914;-62
2021/08/01 11:42:26;;;;;;;;;;;;;;;38.04;27.84;99250.31;5052292;28;815;-62
2021/08/01 11:45:00;;;;;;;;;;;;;;;37.87;28.06;99254.13;5052101;28;902;-61
2021/08/01 11:47:27;;;;;;;;;;;;;;;37.76;28.46;99249.72;5052280;28;842;-61
2021/08/01 11:49:54;;;;;;;;;;;;;;;37.92;28.02;99243.66;5052075;28;889;-61
2021/08/01 11:52:46;;;;;;;;;;;;;;;38.21;27.48;99246.47;5052119;28;1885;-61
2021/08/01 11:55:14;;;;;;;;;;;;;;;38.23;27.50;99246.63;5052091;28;818;-62
2021/08/01 11:57:43;;;;;;;;;;;;;;;38.33;27.49;99241.59;5052052;28;826;-61
2021/08/01 12:00:10;;;;;;;;;;;;;;;38.16;27.38;99244.69;5052621;28;937;-62
2021/08/01 12:02:39;;;;;;;;;;;;;;;38.26;27.33;99239.66;5051939;28;898;-61
2021/08/01 12:05:08;;;;;;;;;;;;;;;38.38;27.25;99240.50;5052015;28;906;-61
2021/08/01 12:07:45;;;;;;;;;;;;;;;38.45;26.82;99230.16;5051801;28;814;-61
2021/08/01 12:10:20;;;;;;;;;;;;;;;38.51;27.00;99238.50;5050951;28;891;-61
2021/08/01 12:12:47;;;;;;;;;;;;;;;38.47;26.44;99233.19;5051858;28;1905;-61
2021/08/01 12:15:14;;;;;;;;;;;;;;;38.59;26.34;99231.19;5051671;28;1302;-62
2021/08/01 12:17:41;;;;;;;;;;;;;;;38.74;26.98;99232.94;5052332;28;815;-61
2021/08/01 12:20:08;;;;;;;;;;;;;;;39.01;25.80;99237.69;5051921;28;814;-62
2021/08/01 12:22:35;;;;;;;;;;;;;;;39.07;25.29;99241.00;5051796;28;902;-62
2021/08/01 12:25:03;;;;;;;;;;;;;;;39.17;25.44;99229.38;5051725;28;866;-62
2021/08/01 12:27:32;;;;;;;;;;;;;;;39.02;24.98;99236.31;5051488;28;1180;-61
2021/08/01 12:30:02;;;;;;;;;;;;;;;38.93;25.16;99229.19;5051526;28;835;-63
2021/08/01 12:32:34;;;;;;;;;;;;;;;38.83;25.43;99230.63;5051780;28;1977;-62
2021/08/01 12:35:03;;;;;;;;;;;;;;;39.27;25.34;99229.31;5051352;28;922;-62
2021/08/01 12:37:31;;;;;;;;;;;;;;;39.60;24.94;99217.78;5051542;28;855;-62
2021/08/01 12:39:57;;;;;;;;;;;;;;;39.66;24.76;99223.22;5051430;28;815;-62
2021/08/01 12:42:25;;;;;;;;;;;;;;;39.43;25.13;99233.28;5051323;28;1022;-62
2021/08/01 12:45:03;;;;;;;;;;;;;;;39.59;24.53;99233.63;5051336;28;934;-61
2021/08/01 12:47:30;;;;;;;;;;;;;;;39.90;24.32;99229.84;5051418;28;905;-61
2021/08/01 12:50:01;;;;;;;;;;;;;;;40.05;24.17;99217.81;5051458;28;814;-62
2021/08/01 12:52:28;;;;;;;;;;;;;;;40.34;24.36;99217.50;5051237;28;1889;-59
2021/08/01 12:54:54;;;;;;;;;;;;;;;40.50;23.63;99214.13;5051220;28;968;-60
2021/08/01 12:57:21;;;;;;;;;;;;;;;40.22;23.70;99216.72;5051468;28;869;-60
2021/08/01 13:00:07;;;;;;;;;;;;;;;40.04;24.34;99221.34;5051302;28;798;-59
2021/08/01 13:02:34;;;;;;;;;;;;;;;40.17;23.81;99220.75;5051230;28;836;-62
2021/08/01 13:05:00;;;;;;;;;;;;;;;40.33;24.07;99218.13;5051224;28;830;-61
2021/08/01 13:07:27;;;;;;;;;;;;;;;40.44;24.05;99219.53;5051090;28;1134;-61
2021/08/01 13:10:00;;;;;;;;;;;;;;;40.72;23.54;99206.09;5050999;28;925;-62
2021/08/01 13:12:27;;;;;;;;;;;;;;;40.94;23.38;99207.44;5051076;28;1878;-62
2021/08/01 13:14:53;;;;;;;;;;;;;;;41.04;23.13;99204.41;5051147;28;1185;-62
2021/08/01 13:17:39;;;;;;;;;;;;;;;41.28;23.01;99201.47;5033153;28;1294;-59
2021/08/01 13:20:07;;;;;;;;;;;;;;;40.90;23.55;99212.22;5017792;28;938;-60
2021/08/01 13:22:34;;;;;;;;;;;;;;;40.47;24.05;99209.59;5055006;28;949;-59